createdAt,value
2023-03-06T00:01:10.050Z,48.83
2023-03-06T00:03:37.393Z,48.49
2023-03-06T00:06:05.145Z,49.48
2023-03-06T00:08:32.381Z,49.88
2023-03-06T00:11:00.802Z,48.45
2023-03-06T00:13:30.707Z,49.10
2023-03-06T00:16:04.865Z,48.93
2023-03-06T00:18:32.081Z,49.43
2023-03-06T00:21:00.001Z,49.64
2023-03-06T00:23:27.624Z,49.30
2023-03-06T00:25:54.816Z,49.75
2023-03-06T00:28:22.111Z,49.14
2023-03-06T00:30:49.429Z,49.41
2023-03-06T00:33:16.772Z,49.41
2023-03-06T00:35:44.042Z,48.20
2023-03-06T00:38:13.626Z,48.38
2023-03-06T00:40:41.018Z,48.55
2023-03-06T00:43:08.206Z,48.79
2023-03-06T00:45:36.261Z,48.98
2023-03-06T00:48:04.345Z,49.05
2023-03-06T00:50:31.818Z,49.08
2023-03-06T00:53:00.469Z,49.13
2023-03-06T00:55:29.381Z,49.44
2023-03-06T00:57:56.721Z,50.17
2023-03-06T01:00:24.082Z,50.13
2023-03-06T01:02:53.600Z,49.55
2023-03-06T01:05:22.608Z,49.82
2023-03-06T01:07:49.818Z,50.32
2023-03-06T01:10:17.369Z,49.98
2023-03-06T01:12:45.623Z,50.62
2023-03-06T01:15:14.362Z,50.50
2023-03-06T01:17:41.487Z,49.99
2023-03-06T01:20:16.203Z,50.44
2023-03-06T01:22:43.794Z,50.58
2023-03-06T01:25:11.886Z,50.69
2023-03-06T01:27:39.377Z,50.61
2023-03-06T01:30:07.882Z,51.38
2023-03-06T01:32:35.101Z,50.50
2023-03-06T01:35:03.777Z,50.28
2023-03-06T01:37:31.156Z,49.86
2023-03-06T01:39:58.381Z,50.60
2023-03-06T01:42:25.797Z,50.30
2023-03-06T01:45:27.742Z,50.07
2023-03-06T01:47:55.255Z,50.87
2023-03-06T01:50:22.756Z,50.45
2023-03-06T01:52:58.560Z,50.45
2023-03-06T01:55:35.298Z,50.22
2023-03-06T01:58:11.523Z,49.89
2023-03-06T02:00:39.082Z,49.70
2023-03-06T02:03:14.681Z,49.67
2023-03-06T02:05:44.154Z,49.45
2023-03-06T02:08:17.660Z,48.36
2023-03-06T02:11:13.291Z,49.04
2023-03-06T02:13:43.059Z,49.02
2023-03-06T02:16:11.718Z,49.07
2023-03-06T02:18:42.466Z,48.80
2023-03-06T02:21:21.845Z,49.50
2023-03-06T02:24:49.565Z,50.22
2023-03-06T02:27:19.275Z,49.97
2023-03-06T02:29:46.883Z,50.56
2023-03-06T02:32:15.240Z,50.55
2023-03-06T02:34:58.397Z,49.93
2023-03-06T02:37:28.876Z,48.75
2023-03-06T02:40:09.883Z,49.87
2023-03-06T02:42:37.421Z,48.48
2023-03-06T02:45:13.156Z,49.42
2023-03-06T02:47:41.282Z,48.67
2023-03-06T02:50:10.453Z,50.65
2023-03-06T02:52:38.046Z,51.23
2023-03-06T02:55:06.347Z,51.93
2023-03-06T02:57:33.902Z,51.42
2023-03-06T03:00:01.386Z,51.54
2023-03-06T03:02:30.025Z,52.60
2023-03-06T03:04:59.117Z,52.20
2023-03-06T03:07:26.652Z,53.27
2023-03-06T03:09:54.229Z,52.41
2023-03-06T03:12:22.457Z,51.98
2023-03-06T03:14:50.171Z,51.79
2023-03-06T03:17:17.665Z,51.82
2023-03-06T03:19:46.839Z,51.31
2023-03-06T03:22:14.754Z,51.63
2023-03-06T03:24:42.446Z,51.04
2023-03-06T03:27:11.263Z,50.85
2023-03-06T03:29:39.028Z,50.27
2023-03-06T03:32:07.768Z,50.03
2023-03-06T03:34:36.555Z,49.51
2023-03-06T03:37:05.117Z,50.60
2023-03-06T03:39:32.674Z,50.62
2023-03-06T03:42:00.024Z,50.93
2023-03-06T03:44:28.419Z,51.37
2023-03-06T03:46:56.586Z,51.68
2023-03-06T03:49:25.108Z,51.52
2023-03-06T03:51:53.349Z,51.30
2023-03-06T03:54:27.577Z,51.45
2023-03-06T03:56:55.194Z,51.34
2023-03-06T03:59:27.033Z,51.46
2023-03-06T04:02:24.046Z,50.83
2023-03-06T04:05:16.978Z,50.44
2023-03-06T04:07:44.720Z,51.16
2023-03-06T04:10:13.580Z,52.50
2023-03-06T04:12:41.334Z,52.10
2023-03-06T04:15:11.536Z,51.24
2023-03-06T04:17:39.920Z,50.97
2023-03-06T04:20:11.987Z,51.36
2023-03-06T04:22:39.372Z,52.14
2023-03-06T04:25:07.499Z,52.21
2023-03-06T04:27:35.827Z,52.73
2023-03-06T04:30:05.842Z,51.80
2023-03-06T04:32:34.838Z,51.64
2023-03-06T04:35:02.872Z,52.87
2023-03-06T04:37:35.728Z,53.20
2023-03-06T04:40:04.275Z,53.59
2023-03-06T04:42:31.539Z,54.47
2023-03-06T04:44:58.848Z,53.88
2023-03-06T04:47:26.326Z,53.06
2023-03-06T04:49:54.106Z,52.55
2023-03-06T04:52:21.310Z,53.27
2023-03-06T04:54:48.695Z,53.75
2023-03-06T04:57:16.335Z,53.41
2023-03-06T04:59:43.533Z,52.76
2023-03-06T05:02:10.717Z,52.30
2023-03-06T05:04:37.837Z,51.84
2023-03-06T05:07:05.260Z,51.14
2023-03-06T05:09:35.135Z,50.87
2023-03-06T05:12:03.525Z,51.08
2023-03-06T05:14:31.523Z,50.31
2023-03-06T05:16:58.797Z,50.04
2023-03-06T05:19:26.137Z,51.35
2023-03-06T05:21:53.304Z,52.38
2023-03-06T05:24:20.433Z,52.35
2023-03-06T05:26:47.648Z,51.42
2023-03-06T05:29:14.889Z,51.61
2023-03-06T05:31:42.181Z,51.64
2023-03-06T05:34:16.258Z,53.26
2023-03-06T05:36:44.109Z,52.78
2023-03-06T05:39:11.323Z,53.49
2023-03-06T05:41:38.679Z,53.21
2023-03-06T05:44:33.261Z,53.76
2023-03-06T05:47:01.915Z,54.01
2023-03-06T05:49:35.082Z,53.79
2023-03-06T05:52:05.227Z,54.11
2023-03-06T05:54:35.456Z,53.73
2023-03-06T05:57:11.712Z,53.53
2023-03-06T05:59:39.100Z,54.07
2023-03-06T06:02:06.416Z,54.41
2023-03-06T06:04:34.054Z,54.05
2023-03-06T06:07:02.471Z,54.96
2023-03-06T06:09:30.246Z,55.01
2023-03-06T06:12:02.123Z,54.34
2023-03-06T06:14:32.853Z,53.77
2023-03-06T06:17:00.892Z,52.83
2023-03-06T06:19:32.201Z,52.94
2023-03-06T06:21:59.402Z,52.59
2023-03-06T06:24:27.227Z,51.79
2023-03-06T06:26:57.583Z,52.29
2023-03-06T06:29:26.996Z,52.84
2023-03-06T06:31:55.821Z,52.58
2023-03-06T06:34:24.292Z,53.90
2023-03-06T06:36:54.337Z,53.34
2023-03-06T06:39:23.829Z,52.11
2023-03-06T06:42:05.959Z,52.43
2023-03-06T06:44:40.101Z,54.29
2023-03-06T06:47:25.112Z,53.74
2023-03-06T06:49:55.777Z,52.30
2023-03-06T06:52:25.214Z,51.92
2023-03-06T06:54:53.421Z,53.51
2023-03-06T06:57:20.882Z,53.07
2023-03-06T06:59:48.044Z,53.38
2023-03-06T07:02:16.570Z,52.90
2023-03-06T07:05:01.979Z,52.33
2023-03-06T07:07:32.954Z,51.73
2023-03-06T07:10:00.207Z,51.22
2023-03-06T07:12:27.518Z,48.80
2023-03-06T07:14:54.673Z,47.60
2023-03-06T07:17:21.863Z,48.51
2023-03-06T07:19:49.075Z,49.33
2023-03-06T07:22:16.461Z,48.64
2023-03-06T07:24:43.619Z,49.36
2023-03-06T07:27:10.824Z,51.35
2023-03-06T07:29:38.355Z,50.50
2023-03-06T07:32:05.860Z,49.62
2023-03-06T07:34:33.214Z,49.48
2023-03-06T07:37:00.557Z,49.42
2023-03-06T07:39:30.107Z,49.66
2023-03-06T07:41:58.586Z,48.51
2023-03-06T07:44:26.670Z,47.17
2023-03-06T07:46:53.969Z,47.32
2023-03-06T07:49:21.396Z,47.04
2023-03-06T07:51:48.768Z,48.33
2023-03-06T07:54:16.184Z,47.77
2023-03-06T07:56:43.552Z,47.28
2023-03-06T07:59:12.019Z,47.42
2023-03-06T08:01:40.220Z,46.70
2023-03-06T08:04:08.286Z,47.27
2023-03-06T08:06:35.785Z,47.24
2023-03-06T08:09:04.673Z,45.73
2023-03-06T08:11:33.258Z,46.87
2023-03-06T08:14:01.286Z,46.38
2023-03-06T08:16:31.774Z,45.12
2023-03-06T08:18:59.215Z,44.61
2023-03-06T08:21:28.169Z,43.99
2023-03-06T08:23:56.154Z,43.87
2023-03-06T08:26:28.645Z,42.79
2023-03-06T08:29:00.576Z,42.92
2023-03-06T08:31:34.548Z,42.67
2023-03-06T08:34:06.931Z,41.59
2023-03-06T08:36:34.666Z,41.86
2023-03-06T08:39:02.972Z,41.03
2023-03-06T08:41:30.959Z,40.43
2023-03-06T08:43:58.272Z,40.50
2023-03-06T08:46:28.987Z,40.80
2023-03-06T08:48:57.140Z,40.17
2023-03-06T08:51:25.719Z,39.31
2023-03-06T08:53:53.223Z,37.59
2023-03-06T08:56:29.433Z,37.08
2023-03-06T08:59:00.031Z,36.88
2023-03-06T09:01:35.165Z,36.35
2023-03-06T09:04:11.470Z,35.85
2023-03-06T09:06:44.138Z,35.30
2023-03-06T09:09:12.785Z,33.84
2023-03-06T09:11:40.365Z,33.73
2023-03-06T09:14:07.557Z,32.27
2023-03-06T09:16:35.029Z,31.44
2023-03-06T09:19:02.585Z,30.00
2023-03-06T09:21:29.916Z,29.85
2023-03-06T09:23:57.309Z,30.64
2023-03-06T09:26:32.806Z,30.80
2023-03-06T09:29:07.868Z,31.88
2023-03-06T09:31:35.193Z,32.49
2023-03-06T09:34:02.349Z,31.84
2023-03-06T09:36:29.700Z,31.45
2023-03-06T09:38:57.094Z,32.09
2023-03-06T09:41:38.406Z,32.77
2023-03-06T09:44:17.913Z,33.05
2023-03-06T09:47:00.590Z,33.43
2023-03-06T09:50:14.284Z,33.46
2023-03-06T09:52:41.372Z,33.43
2023-03-06T09:55:24.992Z,33.23
2023-03-06T09:58:18.558Z,33.71
2023-03-06T10:01:11.700Z,34.45
2023-03-06T10:04:22.226Z,34.53
2023-03-06T10:07:00.867Z,34.01
2023-03-06T10:09:51.254Z,34.32
2023-03-06T10:12:28.755Z,33.98
2023-03-06T10:15:18.738Z,34.22
2023-03-06T10:17:46.756Z,34.43
2023-03-06T10:20:28.603Z,33.95
2023-03-06T10:23:45.167Z,33.76
2023-03-06T10:26:33.800Z,34.37
2023-03-06T10:29:47.641Z,33.30
2023-03-06T10:32:48.789Z,33.08
2023-03-06T10:35:30.819Z,32.42
2023-03-06T10:38:23.896Z,32.82
2023-03-06T10:41:12.094Z,32.83
2023-03-06T10:43:44.332Z,33.31
2023-03-06T10:46:27.753Z,34.61
2023-03-06T10:49:07.384Z,33.86
2023-03-06T10:51:35.547Z,33.44
2023-03-06T10:54:19.989Z,32.90
2023-03-06T10:56:48.075Z,32.77
2023-03-06T10:59:28.486Z,33.26
2023-03-06T11:01:59.158Z,33.14
2023-03-06T11:04:51.661Z,33.33
2023-03-06T11:07:32.440Z,33.94
2023-03-06T11:10:19.519Z,33.46
2023-03-06T11:13:23.250Z,35.17
2023-03-06T11:16:06.207Z,33.83
2023-03-06T11:18:40.253Z,33.63
2023-03-06T11:21:33.957Z,33.06
2023-03-06T11:24:19.019Z,33.38
2023-03-06T11:27:00.202Z,32.90
2023-03-06T11:29:42.412Z,33.62
2023-03-06T11:32:55.983Z,33.08
2023-03-06T11:35:35.246Z,33.07
2023-03-06T11:38:20.292Z,32.97
2023-03-06T11:40:59.814Z,32.77
2023-03-06T11:44:00.728Z,33.09
2023-03-06T11:46:44.462Z,31.76
2023-03-06T11:49:35.013Z,32.76
2023-03-06T11:52:15.073Z,31.45
2023-03-06T11:54:42.267Z,30.18
2023-03-06T11:57:27.265Z,29.44
2023-03-06T12:00:44.215Z,28.91
2023-03-06T12:03:53.836Z,29.06
2023-03-06T12:07:09.217Z,29.05
2023-03-06T12:12:51.633Z,28.84
2023-03-06T12:15:47.099Z,29.12
2023-03-06T12:19:09.580Z,28.10
2023-03-06T12:22:27.362Z,27.48
2023-03-06T12:25:17.256Z,26.55
2023-03-06T12:28:13.150Z,26.93
2023-03-06T12:31:36.798Z,26.85
2023-03-06T12:34:50.254Z,26.77
2023-03-06T12:37:50.894Z,27.90
2023-03-06T12:40:38.074Z,27.56
2023-03-06T12:43:32.369Z,27.21
2023-03-06T12:46:21.947Z,28.32
2023-03-06T12:49:32.915Z,28.27
2023-03-06T12:52:02.169Z,28.95
2023-03-06T12:54:36.620Z,28.11
2023-03-06T12:57:07.864Z,28.06
2023-03-06T12:59:47.887Z,28.18
2023-03-06T13:02:36.219Z,29.68
2023-03-06T13:05:34.393Z,29.52
2023-03-06T13:08:44.181Z,30.86
2023-03-06T13:11:48.581Z,31.02
2023-03-06T13:14:48.793Z,30.88
2023-03-06T13:17:39.468Z,30.28
2023-03-06T13:20:16.294Z,30.30
2023-03-06T13:22:47.148Z,29.68
2023-03-06T13:25:17.324Z,29.57
2023-03-06T13:28:04.419Z,29.71
2023-03-06T13:30:46.994Z,29.85
2023-03-06T13:33:36.730Z,30.95
2023-03-06T13:36:42.797Z,30.46
2023-03-06T13:39:13.100Z,30.46
2023-03-06T13:41:59.588Z,30.71
2023-03-06T13:44:26.788Z,31.22
2023-03-06T13:47:21.585Z,30.86
2023-03-06T13:49:49.273Z,31.73
2023-03-06T13:53:05.265Z,32.39
2023-03-06T13:56:04.240Z,31.74
2023-03-06T13:59:13.178Z,32.26
2023-03-06T14:01:53.057Z,32.62
2023-03-06T14:04:43.769Z,32.23
2023-03-06T14:07:23.427Z,31.86
2023-03-06T14:10:15.055Z,32.03
2023-03-06T14:12:51.318Z,32.11
2023-03-06T14:15:25.156Z,32.54
2023-03-06T14:18:05.532Z,32.89
2023-03-06T14:20:39.058Z,32.49
2023-03-06T14:23:24.461Z,32.27
2023-03-06T14:26:20.388Z,32.22
2023-03-06T14:28:53.577Z,32.07
2023-03-06T14:31:27.109Z,31.52
2023-03-06T14:34:06.708Z,31.65
2023-03-06T14:36:45.774Z,32.42
2023-03-06T14:39:42.349Z,31.56
2023-03-06T14:42:29.274Z,31.97
2023-03-06T14:45:05.657Z,31.64
2023-03-06T14:47:37.402Z,31.29
2023-03-06T14:50:30.098Z,31.46
2023-03-06T14:53:23.194Z,31.61
2023-03-06T14:56:00.450Z,31.71
2023-03-06T14:58:48.530Z,31.60
2023-03-06T15:01:17.448Z,31.25
2023-03-06T15:03:53.017Z,31.83
2023-03-06T15:06:33.298Z,32.24
2023-03-06T15:09:20.606Z,32.44
2023-03-06T15:12:08.752Z,31.82
2023-03-06T15:14:48.665Z,31.49
2023-03-06T15:17:18.988Z,31.93
2023-03-06T15:19:59.338Z,32.04
2023-03-06T15:22:42.446Z,32.30
2023-03-06T15:25:18.822Z,33.18
2023-03-06T15:27:50.882Z,33.26
2023-03-06T15:30:37.601Z,33.65
2023-03-06T15:33:19.512Z,33.61
2023-03-06T15:36:02.233Z,34.11
2023-03-06T15:38:36.479Z,33.48
2023-03-06T15:41:06.894Z,33.89
2023-03-06T15:43:40.114Z,33.82
2023-03-06T15:46:08.127Z,33.87
2023-03-06T15:48:35.719Z,34.75
2023-03-06T15:51:04.672Z,35.53
2023-03-06T15:53:32.188Z,36.06
2023-03-06T15:55:59.901Z,35.42
2023-03-06T15:58:33.626Z,36.16
2023-03-06T16:01:00.920Z,36.27
2023-03-06T16:03:28.083Z,36.47
2023-03-06T16:05:55.430Z,36.73
2023-03-06T16:08:22.703Z,37.37
2023-03-06T16:10:52.469Z,37.54
2023-03-06T16:13:28.826Z,38.03
2023-03-06T16:15:56.638Z,38.56
2023-03-06T16:18:23.968Z,38.53
2023-03-06T16:20:51.246Z,38.65
2023-03-06T16:23:18.377Z,38.16
2023-03-06T16:25:49.374Z,38.66
2023-03-06T16:28:17.086Z,38.56
2023-03-06T16:30:45.442Z,39.80
2023-03-06T16:33:16.869Z,40.83
2023-03-06T16:35:46.505Z,40.09
2023-03-06T16:38:15.769Z,40.14
2023-03-06T16:40:43.441Z,40.01
2023-03-06T16:43:10.909Z,40.10
2023-03-06T16:45:41.687Z,40.14
2023-03-06T16:48:15.816Z,39.81
2023-03-06T16:50:43.537Z,40.40
2023-03-06T16:53:10.744Z,41.46
2023-03-06T16:55:38.161Z,41.04
2023-03-06T16:58:05.703Z,40.53
2023-03-06T17:00:33.397Z,40.78
2023-03-06T17:03:02.603Z,41.18
2023-03-06T17:05:33.952Z,40.74
2023-03-06T17:08:02.424Z,40.46
2023-03-06T17:10:30.113Z,41.27
2023-03-06T17:12:57.761Z,41.41
2023-03-06T17:15:26.098Z,41.22
2023-03-06T17:17:53.556Z,41.41
2023-03-06T17:20:21.033Z,41.87
2023-03-06T17:22:48.437Z,42.03
2023-03-06T17:25:16.019Z,41.92
2023-03-06T17:27:43.529Z,42.24
2023-03-06T17:30:12.174Z,43.45
2023-03-06T17:32:41.080Z,43.61
2023-03-06T17:35:10.103Z,43.26
2023-03-06T17:37:37.793Z,44.15
2023-03-06T17:40:10.046Z,44.09
2023-03-06T17:42:37.264Z,44.17
2023-03-06T17:45:09.048Z,44.39
2023-03-06T17:47:36.406Z,45.05
2023-03-06T17:50:04.449Z,44.55
2023-03-06T17:52:32.076Z,45.73
2023-03-06T17:54:59.393Z,45.02
2023-03-06T17:57:26.762Z,44.70
2023-03-06T17:59:54.038Z,44.93
2023-03-06T18:02:21.533Z,44.84
2023-03-06T18:04:49.319Z,44.43
2023-03-06T18:07:16.776Z,44.65
2023-03-06T18:09:44.306Z,44.86
2023-03-06T18:12:11.801Z,44.52
2023-03-06T18:14:39.214Z,44.53
2023-03-06T18:17:06.559Z,45.44
2023-03-06T18:19:34.004Z,45.08
2023-03-06T18:22:01.466Z,45.00
2023-03-06T18:24:28.928Z,44.63
2023-03-06T18:26:56.924Z,44.56
2023-03-06T18:29:24.364Z,44.76
2023-03-06T18:31:51.735Z,44.67
2023-03-06T18:34:19.229Z,44.22
2023-03-06T18:36:51.677Z,44.25
2023-03-06T18:39:21.462Z,44.52
2023-03-06T18:41:48.835Z,45.20
2023-03-06T18:44:21.983Z,44.99
2023-03-06T18:46:49.218Z,44.50
2023-03-06T18:49:16.665Z,44.73
2023-03-06T18:51:44.065Z,45.06
2023-03-06T18:54:12.043Z,44.50
2023-03-06T18:56:43.962Z,44.49
2023-03-06T18:59:18.525Z,44.61
2023-03-06T19:01:47.821Z,44.26
2023-03-06T19:04:15.375Z,44.00
2023-03-06T19:06:42.790Z,44.50
2023-03-06T19:09:11.465Z,44.01
2023-03-06T19:11:39.000Z,43.91
2023-03-06T19:14:06.743Z,45.08
2023-03-06T19:16:34.966Z,44.74
2023-03-06T19:19:02.523Z,44.55
2023-03-06T19:21:32.472Z,45.52
2023-03-06T19:23:59.805Z,44.80
2023-03-06T19:26:28.342Z,44.52
2023-03-06T19:28:55.860Z,44.30
2023-03-06T19:31:27.738Z,44.11
2023-03-06T19:33:56.950Z,44.36
2023-03-06T19:36:33.486Z,44.46
2023-03-06T19:39:05.692Z,44.21
2023-03-06T19:41:33.737Z,44.09
2023-03-06T19:44:03.207Z,44.18
2023-03-06T19:46:31.748Z,44.44
2023-03-06T19:49:02.367Z,43.79
2023-03-06T19:51:30.563Z,44.93
2023-03-06T19:53:58.267Z,44.43
2023-03-06T19:56:30.248Z,44.19
2023-03-06T19:58:57.848Z,43.38
2023-03-06T20:01:27.763Z,43.90
2023-03-06T20:03:59.661Z,43.89
2023-03-06T20:06:33.612Z,44.25
2023-03-06T20:09:05.508Z,44.40
2023-03-06T20:11:33.003Z,44.20
2023-03-06T20:14:04.753Z,44.28
2023-03-06T20:16:33.593Z,44.22
2023-03-06T20:19:02.696Z,43.80
2023-03-06T20:21:37.438Z,43.93
2023-03-06T20:24:16.474Z,43.87
2023-03-06T20:26:47.594Z,43.51
2023-03-06T20:29:15.494Z,43.61
2023-03-06T20:31:46.189Z,43.98
2023-03-06T20:34:14.572Z,43.76
2023-03-06T20:36:41.785Z,43.86
2023-03-06T20:39:15.614Z,43.33
2023-03-06T20:41:44.438Z,43.50
2023-03-06T20:44:23.271Z,43.58
2023-03-06T20:46:52.296Z,43.65
2023-03-06T20:49:27.334Z,43.78
2023-03-06T20:51:56.005Z,43.16
2023-03-06T20:54:23.398Z,43.78
2023-03-06T20:56:51.626Z,43.72
2023-03-06T20:59:19.386Z,42.33
2023-03-06T21:01:48.022Z,42.47
2023-03-06T21:04:16.416Z,42.81
2023-03-06T21:06:46.847Z,42.77
2023-03-06T21:09:16.839Z,43.34
2023-03-06T21:11:44.442Z,43.49
2023-03-06T21:14:13.766Z,43.95
2023-03-06T21:16:42.195Z,44.35
2023-03-06T21:19:11.199Z,44.46
2023-03-06T21:21:38.515Z,44.54
2023-03-06T21:24:06.088Z,43.89
2023-03-06T21:26:34.120Z,43.80
2023-03-06T21:29:02.516Z,44.11
2023-03-06T21:31:31.580Z,43.11
2023-03-06T21:33:59.472Z,44.19
2023-03-06T21:36:28.108Z,44.04
2023-03-06T21:38:55.618Z,43.73
2023-03-06T21:41:28.494Z,43.29
2023-03-06T21:44:03.736Z,44.38
2023-03-06T21:46:32.392Z,44.92
2023-03-06T21:49:04.126Z,44.47
2023-03-06T21:51:32.266Z,45.35
2023-03-06T21:53:59.956Z,44.70
2023-03-06T21:56:28.403Z,44.65
2023-03-06T21:58:58.052Z,45.44
2023-03-06T22:01:29.209Z,45.09
2023-03-06T22:03:58.916Z,45.69
2023-03-06T22:06:29.838Z,45.96
2023-03-06T22:09:00.068Z,45.63
2023-03-06T22:11:31.396Z,44.74
2023-03-06T22:13:59.050Z,44.98
2023-03-06T22:16:32.700Z,44.34
2023-03-06T22:19:00.148Z,45.63
2023-03-06T22:21:27.450Z,44.07
2023-03-06T22:23:58.270Z,45.27
2023-03-06T22:26:28.371Z,45.61
2023-03-06T22:28:56.231Z,45.38
2023-03-06T22:31:27.071Z,45.89
2023-03-06T22:33:58.915Z,46.04
2023-03-06T22:36:31.178Z,44.71
2023-03-06T22:39:04.278Z,45.53
2023-03-06T22:41:32.477Z,45.71
2023-03-06T22:44:02.268Z,44.69
2023-03-06T22:46:31.578Z,45.38
2023-03-06T22:49:01.151Z,45.79
2023-03-06T22:51:29.693Z,45.73
2023-03-06T22:53:58.019Z,45.79
2023-03-06T22:56:26.451Z,45.67
2023-03-06T22:58:53.719Z,44.74
2023-03-06T23:01:26.715Z,45.31
2023-03-06T23:03:58.977Z,45.37
2023-03-06T23:06:33.089Z,45.55
2023-03-06T23:09:12.600Z,45.46
2023-03-06T23:11:58.707Z,44.75
2023-03-06T23:14:51.169Z,45.37
2023-03-06T23:17:37.450Z,45.17
2023-03-06T23:20:23.530Z,45.07
2023-03-06T23:23:10.757Z,45.30
2023-03-06T23:25:44.794Z,44.74
2023-03-06T23:28:12.745Z,44.58
2023-03-06T23:30:41.417Z,45.06
2023-03-06T23:33:09.459Z,44.54
2023-03-06T23:35:41.328Z,43.37
2023-03-06T23:38:08.603Z,43.56
2023-03-06T23:40:38.682Z,44.45
2023-03-06T23:43:06.391Z,44.86
2023-03-06T23:45:33.974Z,44.40
2023-03-06T23:48:01.264Z,44.33
2023-03-06T23:50:28.582Z,44.31
2023-03-06T23:52:56.117Z,44.34
2023-03-06T23:55:23.500Z,44.77
2023-03-06T23:57:50.651Z,44.88
